sensor_id;sensor_type;location;lat;lon;timestamp;pressure;altitude;pressure_sealevel;temperature;humidity
44127;BME280;29786;50.798;7.302;2023-03-01T00:04:33;100420;;;-1.52;96.03
44127;BME280;29786;50.798;7.302;2023-03-01T00:09:29;100430;;;-1.35;94.63
44127;BME280;29786;50.798;7.302;2023-03-01T00:14:26;100430;;;-1.49;96.27
44127;BME280;29786;50.798;7.302;2023-03-01T00:20:37;100430;;;-1.45;97.23
44127;BME280;29786;50.798;7.302;2023-03-01T00:25:33;100440;;;-1.29;97.63
44127;BME280;29786;50.798;7.302;2023-03-01T00:30:30;100440;;;-1.36;97.41
44127;BME280;29786;50.798;7.302;2023-03-01T00:41:37;100440;;;-1.76;98.99
44127;BME280;29786;50.798;7.302;2023-03-01T00:46:33;100440;;;-1.82;100
44127;BME280;29786;50.798;7.302;2023-03-01T00:51:30;100440;;;-1.89;100
44127;BME280;29786;50.798;7.302;2023-03-01T00:56:27;100440;;;-1.9;100
44127;BME280;29786;50.798;7.302;2023-03-01T01:02:37;100430;;;-2;100
44127;BME280;29786;50.798;7.302;2023-03-01T01:07:34;100430;;;-1.86;100
44127;BME280;29786;50.798;7.302;2023-03-01T01:12:30;100430;;;-1.7;100
44127;BME280;29786;50.798;7.302;2023-03-01T01:17:27;100420;;;-1.78;100
44127;BME280;29786;50.798;7.302;2023-03-01T01:23:38;100410;;;-1.9;100
44127;BME280;29786;50.798;7.302;2023-03-01T01:28:34;100400;;;-2.04;100
44127;BME280;29786;50.798;7.302;2023-03-01T01:33:31;100390;;;-1.77;100
44127;BME280;29786;50.798;7.302;2023-03-01T01:38:27;100390;;;-1.67;100
44127;BME280;29786;50.798;7.302;2023-03-01T01:44:39;100390;;;-1.96;100
44127;BME280;29786;50.798;7.302;2023-03-01T01:49:39;100380;;;-2.17;100
44127;BME280;29786;50.798;7.302;2023-03-01T01:54:33;100380;;;-2.18;100
44127;BME280;29786;50.798;7.302;2023-03-01T02:06:12;100370;;;-2.36;100
44127;BME280;29786;50.798;7.302;2023-03-01T02:10:35;100380;;;-2.42;100
44127;BME280;29786;50.798;7.302;2023-03-01T02:15:32;100380;;;-2.4;100
44127;BME280;29786;50.798;7.302;2023-03-01T02:20:32;100380;;;-2.31;100
44127;BME280;29786;50.798;7.302;2023-03-01T02:26:40;100370;;;-2.29;100
44127;BME280;29786;50.798;7.302;2023-03-01T02:31:35;100350;;;-2.14;100
44127;BME280;29786;50.798;7.302;2023-03-01T02:36:34;100350;;;-2.11;100
44127;BME280;29786;50.798;7.302;2023-03-01T02:41:28;100360;;;-2.53;100
44127;BME280;29786;50.798;7.302;2023-03-01T02:47:38;100360;;;-2.62;100
44127;BME280;29786;50.798;7.302;2023-03-01T02:57:32;100340;;;-2.55;100
44127;BME280;29786;50.798;7.302;2023-03-01T03:02:29;100340;;;-2.33;100
44127;BME280;29786;50.798;7.302;2023-03-01T03:08:39;100330;;;-2.46;100
44127;BME280;29786;50.798;7.302;2023-03-01T03:13:35;100330;;;-2.57;100
44127;BME280;29786;50.798;7.302;2023-03-01T03:18:32;100330;;;-2.57;100
44127;BME280;29786;50.798;7.302;2023-03-01T03:23:28;100320;;;-2.48;100
44127;BME280;29786;50.798;7.302;2023-03-01T03:29:39;100310;;;-2.46;100
44127;BME280;29786;50.798;7.302;2023-03-01T03:34:36;100310;;;-2.54;100
44127;BME280;29786;50.798;7.302;2023-03-01T03:39:32;100320;;;-2.62;100
44127;BME280;29786;50.798;7.302;2023-03-01T03:44:29;100310;;;-2.86;100
44127;BME280;29786;50.798;7.302;2023-03-01T03:50:40;100310;;;-2.86;100
44127;BME280;29786;50.798;7.302;2023-03-01T03:55:36;100310;;;-2.91;100
44127;BME280;29786;50.798;7.302;2023-03-01T04:00:34;100280;;;-3.07;100
44127;BME280;29786;50.798;7.302;2023-03-01T04:05:29;100290;;;-2.89;100
44127;BME280;29786;50.798;7.302;2023-03-01T04:10:26;100280;;;-2.74;100
44127;BME280;29786;50.798;7.302;2023-03-01T04:16:36;100280;;;-2.74;100
44127;BME280;29786;50.798;7.302;2023-03-01T04:21:33;100250;;;-2.99;100
44127;BME280;29786;50.798;7.302;2023-03-01T04:26:29;100280;;;-2.82;100
44127;BME280;29786;50.798;7.302;2023-03-01T04:31:26;100280;;;-2.56;100
44127;BME280;29786;50.798;7.302;2023-03-01T04:37:36;100270;;;-2.38;100
44127;BME280;29786;50.798;7.302;2023-03-01T04:42:33;100270;;;-2.62;100
44127;BME280;29786;50.798;7.302;2023-03-01T04:47:29;100280;;;-2.86;100
44127;BME280;29786;50.798;7.302;2023-03-01T04:52:26;100270;;;-2.92;100
44127;BME280;29786;50.798;7.302;2023-03-01T04:58:37;100270;;;-2.78;100
44127;BME280;29786;50.798;7.302;2023-03-01T05:03:33;100270;;;-2.9;100
44127;BME280;29786;50.798;7.302;2023-03-01T05:08:30;100280;;;-3.19;100
44127;BME280;29786;50.798;7.302;2023-03-01T05:13:26;100270;;;-3.27;100
44127;BME280;29786;50.798;7.302;2023-03-01T05:19:37;100270;;;-3.15;100
44127;BME280;29786;50.798;7.302;2023-03-01T05:24:34;100270;;;-3.36;100
44127;BME280;29786;50.798;7.302;2023-03-01T05:29:30;100270;;;-3.24;100
44127;BME280;29786;50.798;7.302;2023-03-01T05:34:28;100270;;;-3.38;100
44127;BME280;29786;50.798;7.302;2023-03-01T05:40:37;100270;;;-3.39;100
44127;BME280;29786;50.798;7.302;2023-03-01T05:45:35;100280;;;-3.12;100
44127;BME280;29786;50.798;7.302;2023-03-01T05:50:32;100290;;;-3.18;100
44127;BME280;29786;50.798;7.302;2023-03-01T05:55:27;100280;;;-3.14;100
44127;BME280;29786;50.798;7.302;2023-03-01T06:01:37;100270;;;-3.11;100
44127;BME280;29786;50.798;7.302;2023-03-01T06:06:34;100260;;;-3.17;100
44127;BME280;29786;50.798;7.302;2023-03-01T06:11:30;100260;;;-3.54;100
44127;BME280;29786;50.798;7.302;2023-03-01T06:16:27;100250;;;-3.67;100
44127;BME280;29786;50.798;7.302;2023-03-01T06:22:38;100260;;;-3.52;100
44127;BME280;29786;50.798;7.302;2023-03-01T06:27:34;100260;;;-3.55;100
44127;BME280;29786;50.798;7.302;2023-03-01T06:32:31;100250;;;-3.56;100
44127;BME280;29786;50.798;7.302;2023-03-01T06:37:27;100250;;;-3.45;100
44127;BME280;29786;50.798;7.302;2023-03-01T06:43:38;100250;;;-3.49;100
44127;BME280;29786;50.798;7.302;2023-03-01T06:48:34;100260;;;-3.6;100
44127;BME280;29786;50.798;7.302;2023-03-01T06:53:31;100270;;;-3.34;100
44127;BME280;29786;50.798;7.302;2023-03-01T06:58:28;100270;;;-3.18;100
44127;BME280;29786;50.798;7.302;2023-03-01T07:04:38;100260;;;-3.38;100
44127;BME280;29786;50.798;7.302;2023-03-01T07:09:35;100260;;;-3.35;100
44127;BME280;29786;50.798;7.302;2023-03-01T07:14:31;100260;;;-3.13;100
44127;BME280;29786;50.798;7.302;2023-03-01T07:19:28;100260;;;-3.05;100
44127;BME280;29786;50.798;7.302;2023-03-01T07:25:38;100260;;;-2.89;100
44127;BME280;29786;50.798;7.302;2023-03-01T07:30:35;100250;;;-2.59;100
44127;BME280;29786;50.798;7.302;2023-03-01T07:35:31;100250;;;-2.38;100
44127;BME280;29786;50.798;7.302;2023-03-01T07:40:28;100250;;;-1.97;100
44127;BME280;29786;50.798;7.302;2023-03-01T07:46:39;100240;;;-1.58;100
44127;BME280;29786;50.798;7.302;2023-03-01T07:51:35;100240;;;-1.2;100
44127;BME280;29786;50.798;7.302;2023-03-01T07:56:32;100240;;;-0.96;100
44127;BME280;29786;50.798;7.302;2023-03-01T08:01:28;100240;;;-0.77;99.57
44127;BME280;29786;50.798;7.302;2023-03-01T08:07:39;100230;;;-0.65;98.44
44127;BME280;29786;50.798;7.302;2023-03-01T08:12:35;100230;;;-0.25;95.98
44127;BME280;29786;50.798;7.302;2023-03-01T08:17:32;100230;;;0.03;93.07
44127;BME280;29786;50.798;7.302;2023-03-01T08:22:29;100230;;;0.22;91.09
44127;BME280;29786;50.798;7.302;2023-03-01T08:28:40;100240;;;0.58;88.37
44127;BME280;29786;50.798;7.302;2023-03-01T08:33:36;100230;;;0.84;85.86
44127;BME280;29786;50.798;7.302;2023-03-01T08:38:33;100210;;;0.82;84.62
44127;BME280;29786;50.798;7.302;2023-03-01T08:43:29;100240;;;1.09;84.15
44127;BME280;29786;50.798;7.302;2023-03-01T08:48:27;100240;;;1.19;80.38
44127;BME280;29786;50.798;7.302;2023-03-01T08:54:36;100240;;;1.63;78.75
44127;BME280;29786;50.798;7.302;2023-03-01T08:59:33;100220;;;1.6;77.86
44127;BME280;29786;50.798;7.302;2023-03-01T09:04:29;100240;;;1.86;76.13
44127;BME280;29786;50.798;7.302;2023-03-01T09:09:26;100240;;;2.04;75.64
44127;BME280;29786;50.798;7.302;2023-03-01T09:15:37;100230;;;2.32;75.83
44127;BME280;29786;50.798;7.302;2023-03-01T09:20:33;100220;;;2.26;74.07
44127;BME280;29786;50.798;7.302;2023-03-01T09:25:29;100220;;;2.71;71.47
44127;BME280;29786;50.798;7.302;2023-03-01T09:30:26;100220;;;2.8;71.58
44127;BME280;29786;50.798;7.302;2023-03-01T09:36:37;100210;;;3.24;68.95
44127;BME280;29786;50.798;7.302;2023-03-01T09:46:30;100190;;;3.67;63.44
44127;BME280;29786;50.798;7.302;2023-03-01T09:51:31;100190;;;3.78;62.89
44127;BME280;29786;50.798;7.302;2023-03-01T09:57:41;100190;;;3.75;62.46
44127;BME280;29786;50.798;7.302;2023-03-01T10:02:38;100190;;;3.96;61
44127;BME280;29786;50.798;7.302;2023-03-01T10:07:41;100190;;;4.17;61
44127;BME280;29786;50.798;7.302;2023-03-01T10:12:27;100170;;;4.28;60.78
44127;BME280;29786;50.798;7.302;2023-03-01T10:18:37;100160;;;4.46;58.86
44127;BME280;29786;50.798;7.302;2023-03-01T10:23:34;100160;;;4.71;58.23
44127;BME280;29786;50.798;7.302;2023-03-01T10:28:31;100160;;;5;56.55
44127;BME280;29786;50.798;7.302;2023-03-01T10:33:28;100150;;;5.15;55.94
44127;BME280;29786;50.798;7.302;2023-03-01T10:38:46;100140;;;5.11;56.86
44127;BME280;29786;50.798;7.302;2023-03-01T10:43:32;100140;;;5.47;56.05
44127;BME280;29786;50.798;7.302;2023-03-01T10:49:38;100130;;;5.72;54.09
44127;BME280;29786;50.798;7.302;2023-03-01T10:54:35;100110;;;5.65;55.01
44127;BME280;29786;50.798;7.302;2023-03-01T10:59:35;100110;;;5.41;54.82
44127;BME280;29786;50.798;7.302;2023-03-01T11:04:28;100100;;;5.8;53.13
44127;BME280;29786;50.798;7.302;2023-03-01T11:10:39;100100;;;6.09;51.79
44127;BME280;29786;50.798;7.302;2023-03-01T11:15:35;100090;;;6.12;53.38
44127;BME280;29786;50.798;7.302;2023-03-01T11:20:33;100090;;;6.45;51.64
44127;BME280;29786;50.798;7.302;2023-03-01T11:25:30;100090;;;6.77;50.04
44127;BME280;29786;50.798;7.302;2023-03-01T11:31:39;100080;;;6.99;48.76
44127;BME280;29786;50.798;7.302;2023-03-01T11:36:52;100080;;;7.59;50.06
44127;BME280;29786;50.798;7.302;2023-03-01T11:41:33;100050;;;7.8;49.6
44127;BME280;29786;50.798;7.302;2023-03-01T11:46:43;100050;;;8.72;46.53
44127;BME280;29786;50.798;7.302;2023-03-01T11:57:42;100020;;;11.17;40.08
44127;BME280;29786;50.798;7.302;2023-03-01T12:02:38;100000;;;12.07;37.03
44127;BME280;29786;50.798;7.302;2023-03-01T12:07:35;99990;;;12.46;37.61
44127;BME280;29786;50.798;7.302;2023-03-01T12:12:28;100000;;;13.26;35.39
44127;BME280;29786;50.798;7.302;2023-03-01T12:18:40;99990;;;13.69;34.82
44127;BME280;29786;50.798;7.302;2023-03-01T12:23:41;99960;;;14.56;31.93
44127;BME280;29786;50.798;7.302;2023-03-01T12:28:34;99970;;;14.58;31.74
44127;BME280;29786;50.798;7.302;2023-03-01T12:33:29;99970;;;15.05;30.56
44127;BME280;29786;50.798;7.302;2023-03-01T12:39:44;99970;;;15.21;30.34
44127;BME280;29786;50.798;7.302;2023-03-01T12:44:41;99960;;;15.66;29.64
44127;BME280;29786;50.798;7.302;2023-03-01T12:49:31;99950;;;15.67;30.05
44127;BME280;29786;50.798;7.302;2023-03-01T12:54:27;99940;;;16.87;29.87
44127;BME280;29786;50.798;7.302;2023-03-01T13:00:39;99940;;;17;29.4
44127;BME280;29786;50.798;7.302;2023-03-01T13:05:39;99940;;;16.37;29.92
44127;BME280;29786;50.798;7.302;2023-03-01T13:10:33;99920;;;17.09;31.11
44127;BME280;29786;50.798;7.302;2023-03-01T13:21:37;99910;;;16.96;27.35
44127;BME280;29786;50.798;7.302;2023-03-01T13:26:39;99920;;;18.76;26.29
44127;BME280;29786;50.798;7.302;2023-03-01T13:42:39;99900;;;19.62;24.77
44127;BME280;29786;50.798;7.302;2023-03-01T13:47:34;99880;;;19.77;25.15
44127;BME280;29786;50.798;7.302;2023-03-01T13:53:03;99880;;;20.24;23.11
44127;BME280;29786;50.798;7.302;2023-03-01T13:57:29;99880;;;19.45;23.8
44127;BME280;29786;50.798;7.302;2023-03-01T14:03:40;99870;;;20.29;22.8
44127;BME280;29786;50.798;7.302;2023-03-01T14:08:35;99860;;;20.46;23.39
44127;BME280;29786;50.798;7.302;2023-03-01T14:13:36;99860;;;21.12;22.78
44127;BME280;29786;50.798;7.302;2023-03-01T14:18:34;99850;;;21.12;23.13
44127;BME280;29786;50.798;7.302;2023-03-01T14:24:39;99850;;;21;24.31
44127;BME280;29786;50.798;7.302;2023-03-01T14:29:35;99840;;;21.66;22.07
44127;BME280;29786;50.798;7.302;2023-03-01T14:34:31;99840;;;20.83;22.57
44127;BME280;29786;50.798;7.302;2023-03-01T14:45:38;99820;;;22.46;23.62
44127;BME280;29786;50.798;7.302;2023-03-01T14:50:35;99820;;;21.04;23
44127;BME280;29786;50.798;7.302;2023-03-01T14:55:33;99820;;;20.9;22.59
44127;BME280;29786;50.798;7.302;2023-03-01T15:00:29;99820;;;21.32;22.64
44127;BME280;29786;50.798;7.302;2023-03-01T15:06:38;99800;;;20.77;22.39
44127;BME280;29786;50.798;7.302;2023-03-01T15:11:35;99790;;;21.94;22.05
44127;BME280;29786;50.798;7.302;2023-03-01T15:16:32;99790;;;21.33;22.29
44127;BME280;29786;50.798;7.302;2023-03-01T15:21:31;99780;;;21.79;20.77
44127;BME280;29786;50.798;7.302;2023-03-01T15:27:38;99780;;;21.97;21.1
44127;BME280;29786;50.798;7.302;2023-03-01T15:32:35;99780;;;21.04;21.56
44127;BME280;29786;50.798;7.302;2023-03-01T15:37:36;99770;;;20.32;21.9
44127;BME280;29786;50.798;7.302;2023-03-01T15:42:37;99770;;;20.2;22.18
44127;BME280;29786;50.798;7.302;2023-03-01T15:48:39;99770;;;20.63;22.34
44127;BME280;29786;50.798;7.302;2023-03-01T15:53:35;99760;;;20.89;22.41
44127;BME280;29786;50.798;7.302;2023-03-01T15:58:32;99760;;;19.59;23.71
44127;BME280;29786;50.798;7.302;2023-03-01T16:03:28;99760;;;19.28;23.73
44127;BME280;29786;50.798;7.302;2023-03-01T16:09:39;99750;;;18.91;24.53
44127;BME280;29786;50.798;7.302;2023-03-01T16:14:36;99750;;;18.29;24.75
44127;BME280;29786;50.798;7.302;2023-03-01T16:19:32;99750;;;18.36;26.01
44127;BME280;29786;50.798;7.302;2023-03-01T16:24:29;99750;;;17.23;25.43
44127;BME280;29786;50.798;7.302;2023-03-01T16:29:25;99750;;;17.15;26.45
44127;BME280;29786;50.798;7.302;2023-03-01T16:35:38;99750;;;17.09;26.64
44127;BME280;29786;50.798;7.302;2023-03-01T16:40:32;99730;;;15.53;27.71
44127;BME280;29786;50.798;7.302;2023-03-01T16:45:34;99760;;;14.95;29.07
44127;BME280;29786;50.798;7.302;2023-03-01T16:51:40;99770;;;13.18;31.15
44127;BME280;29786;50.798;7.302;2023-03-01T16:56:36;99780;;;12.58;32.02
44127;BME280;29786;50.798;7.302;2023-03-01T17:01:33;99780;;;11.72;33.23
44127;BME280;29786;50.798;7.302;2023-03-01T17:06:29;99820;;;9.85;34.84
44127;BME280;29786;50.798;7.302;2023-03-01T17:12:40;99830;;;8.01;38.03
44127;BME280;29786;50.798;7.302;2023-03-01T17:17:36;99830;;;6.89;39.99
44127;BME280;29786;50.798;7.302;2023-03-01T17:22:33;99820;;;6.28;40.98
44127;BME280;29786;50.798;7.302;2023-03-01T17:27:29;99830;;;6.01;41.9
44127;BME280;29786;50.798;7.302;2023-03-01T17:32:26;99820;;;5.62;43.38
44127;BME280;29786;50.798;7.302;2023-03-01T17:38:37;99830;;;5.28;45.27
44127;BME280;29786;50.798;7.302;2023-03-01T17:43:33;99830;;;5.03;44.48
44127;BME280;29786;50.798;7.302;2023-03-01T17:48:30;99840;;;4.94;45.44
44127;BME280;29786;50.798;7.302;2023-03-01T17:53:26;99850;;;4.82;47.51
44127;BME280;29786;50.798;7.302;2023-03-01T17:59:37;99850;;;4.62;46.6
44127;BME280;29786;50.798;7.302;2023-03-01T18:04:33;99860;;;4.4;46.82
44127;BME280;29786;50.798;7.302;2023-03-01T18:09:30;99870;;;4.34;49.36
44127;BME280;29786;50.798;7.302;2023-03-01T18:14:27;99860;;;4.15;49.65
44127;BME280;29786;50.798;7.302;2023-03-01T18:20:37;99870;;;3.95;48.74
44127;BME280;29786;50.798;7.302;2023-03-01T18:25:34;99870;;;3.8;48.7
44127;BME280;29786;50.798;7.302;2023-03-01T18:30:30;99860;;;3.73;49.6
44127;BME280;29786;50.798;7.302;2023-03-01T18:35:27;99860;;;3.56;51.61
44127;BME280;29786;50.798;7.302;2023-03-01T18:41:37;99850;;;3.59;51.96
44127;BME280;29786;50.798;7.302;2023-03-01T18:46:34;99860;;;3.51;52.07
44127;BME280;29786;50.798;7.302;2023-03-01T18:51:30;99850;;;3.48;55.48
44127;BME280;29786;50.798;7.302;2023-03-01T18:56:27;99840;;;3.56;55.44
44127;BME280;29786;50.798;7.302;2023-03-01T19:02:38;99840;;;3.39;54.51
44127;BME280;29786;50.798;7.302;2023-03-01T19:07:34;99830;;;3.01;55.68
44127;BME280;29786;50.798;7.302;2023-03-01T19:12:31;99830;;;2.91;56.12
44127;BME280;29786;50.798;7.302;2023-03-01T19:23:38;99830;;;2.92;58.96
44127;BME280;29786;50.798;7.302;2023-03-01T19:28:35;99830;;;2.9;58.23
44127;BME280;29786;50.798;7.302;2023-03-01T19:33:32;99820;;;2.76;58.54
44127;BME280;29786;50.798;7.302;2023-03-01T19:38:28;99820;;;2.78;59.32
44127;BME280;29786;50.798;7.302;2023-03-01T19:44:38;99810;;;2.67;59.44
44127;BME280;29786;50.798;7.302;2023-03-01T19:49:35;99810;;;2.52;58.55
44127;BME280;29786;50.798;7.302;2023-03-01T19:54:31;99800;;;2.42;58.64
44127;BME280;29786;50.798;7.302;2023-03-01T19:59:28;99810;;;2.57;63.12
44127;BME280;29786;50.798;7.302;2023-03-01T20:05:39;99810;;;2.31;59.42
44127;BME280;29786;50.798;7.302;2023-03-01T20:10:35;99800;;;2.46;59.7
44127;BME280;29786;50.798;7.302;2023-03-01T20:15:31;99790;;;2.17;59.36
44127;BME280;29786;50.798;7.302;2023-03-01T20:20:28;99790;;;1.96;60.68
44127;BME280;29786;50.798;7.302;2023-03-01T20:26:39;99800;;;1.74;62.47
44127;BME280;29786;50.798;7.302;2023-03-01T20:31:35;99800;;;1.71;61.96
44127;BME280;29786;50.798;7.302;2023-03-01T20:36:32;99790;;;1.73;62.61
44127;BME280;29786;50.798;7.302;2023-03-01T20:41:28;99800;;;1.64;63.71
44127;BME280;29786;50.798;7.302;2023-03-01T20:47:39;99810;;;1.7;64.22
44127;BME280;29786;50.798;7.302;2023-03-01T20:52:36;99810;;;1.7;62.6
44127;BME280;29786;50.798;7.302;2023-03-01T20:57:33;99810;;;1.56;62.62
44127;BME280;29786;50.798;7.302;2023-03-01T21:02:29;99800;;;1.34;62.79
44127;BME280;29786;50.798;7.302;2023-03-01T21:07:25;99800;;;1.56;63.97
44127;BME280;29786;50.798;7.302;2023-03-01T21:13:36;99800;;;1.52;66.03
44127;BME280;29786;50.798;7.302;2023-03-01T21:18:33;99790;;;1.43;65.63
44127;BME280;29786;50.798;7.302;2023-03-01T21:23:29;99820;;;1.68;68.52
44127;BME280;29786;50.798;7.302;2023-03-01T21:28:25;99820;;;1.73;69.1
44127;BME280;29786;50.798;7.302;2023-03-01T21:34:36;99820;;;1.82;68.85
44127;BME280;29786;50.798;7.302;2023-03-01T21:39:33;99800;;;1.63;67.39
44127;BME280;29786;50.798;7.302;2023-03-01T21:44:29;99820;;;1.67;67.63
44127;BME280;29786;50.798;7.302;2023-03-01T21:49:26;99820;;;1.57;65.93
44127;BME280;29786;50.798;7.302;2023-03-01T21:55:36;99820;;;1.61;67.87
44127;BME280;29786;50.798;7.302;2023-03-01T22:00:33;99800;;;1.54;70.22
44127;BME280;29786;50.798;7.302;2023-03-01T22:05:29;99820;;;1.92;71.29
44127;BME280;29786;50.798;7.302;2023-03-01T22:11:41;99820;;;1.75;67.57
44127;BME280;29786;50.798;7.302;2023-03-01T22:16:37;99820;;;1.78;71.41
44127;BME280;29786;50.798;7.302;2023-03-01T22:31:27;99820;;;1.68;71.41
44127;BME280;29786;50.798;7.302;2023-03-01T22:37:37;99820;;;1.51;70.73
44127;BME280;29786;50.798;7.302;2023-03-01T22:42:33;99820;;;1.58;69.61
44127;BME280;29786;50.798;7.302;2023-03-01T22:47:30;99810;;;1.38;71.29
44127;BME280;29786;50.798;7.302;2023-03-01T22:52:26;99810;;;1.51;72.25
44127;BME280;29786;50.798;7.302;2023-03-01T22:58:37;99810;;;1.44;72.21
44127;BME280;29786;50.798;7.302;2023-03-01T23:02:28;99810;;;1.42;65.42
44127;BME280;29786;50.798;7.302;2023-03-01T23:08:38;99800;;;1.29;71.92
44127;BME280;29786;50.798;7.302;2023-03-01T23:13:35;99800;;;1.29;71.21
44127;BME280;29786;50.798;7.302;2023-03-01T23:18:31;99790;;;1.03;71.48
44127;BME280;29786;50.798;7.302;2023-03-01T23:23:28;99800;;;0.84;75.59
44127;BME280;29786;50.798;7.302;2023-03-01T23:29:39;99790;;;0.71;73.78
44127;BME280;29786;50.798;7.302;2023-03-01T23:34:35;99790;;;0.95;75.82
44127;BME280;29786;50.798;7.302;2023-03-01T23:39:32;99780;;;1.08;71.59
44127;BME280;29786;50.798;7.302;2023-03-01T23:44:28;99780;;;0.98;71.48
44127;BME280;29786;50.798;7.302;2023-03-01T23:50:39;99790;;;0.94;71.57
44127;BME280;29786;50.798;7.302;2023-03-01T23:55:36;99790;;;0.96;69.97
